createdAt,value
2022-11-18T00:01:16.463Z,98795.44
2022-11-18T00:03:44.943Z,98799.31
2022-11-18T00:06:17.470Z,98801.56
2022-11-18T00:08:45.263Z,98804.59
2022-11-18T00:11:36.330Z,98803.72
2022-11-18T00:14:19.428Z,98813.44
2022-11-18T00:16:50.212Z,98814.91
2022-11-18T00:19:19.471Z,98810.66
2022-11-18T00:21:47.639Z,98809.63
2022-11-18T00:24:15.395Z,98817.41
2022-11-18T00:26:44.358Z,98818.56
2022-11-18T00:29:12.344Z,98822.72
2022-11-18T00:31:40.391Z,98820.50
2022-11-18T00:34:08.490Z,98821.44
2022-11-18T00:36:37.506Z,98824.22
2022-11-18T00:39:07.114Z,98829.25
2022-11-18T00:41:48.998Z,98836.53
2022-11-18T00:44:19.296Z,98834.16
2022-11-18T00:46:47.055Z,98841.31
2022-11-18T00:49:15.388Z,98844.50
2022-11-18T00:51:43.401Z,98842.81
2022-11-18T00:54:11.194Z,98840.22
2022-11-18T00:56:39.554Z,98840.44
2022-11-18T00:59:08.529Z,98845.41
2022-11-18T01:01:37.982Z,98844.09
2022-11-18T01:04:05.913Z,98839.03
2022-11-18T01:06:34.545Z,98843.41
2022-11-18T01:09:02.409Z,98846.28
2022-11-18T01:11:47.809Z,98853.44
2022-11-18T01:14:15.522Z,98854.66
2022-11-18T01:16:50.908Z,98867.38
2022-11-18T01:19:18.846Z,98864.84
2022-11-18T01:21:48.159Z,98862.31
2022-11-18T01:24:16.253Z,98866.25
2022-11-18T01:26:44.089Z,98867.75
2022-11-18T01:29:11.653Z,98870.78
2022-11-18T01:31:55.631Z,98876.91
2022-11-18T01:34:38.432Z,98878.88
2022-11-18T01:37:06.235Z,98882.00
2022-11-18T01:39:33.853Z,98878.66
2022-11-18T01:42:01.602Z,98878.88
2022-11-18T01:44:57.660Z,98875.16
2022-11-18T01:47:26.664Z,98879.53
2022-11-18T01:49:56.523Z,98868.19
2022-11-18T01:52:25.183Z,98876.75
2022-11-18T01:54:56.611Z,98868.00
2022-11-18T01:57:27.860Z,98859.88
2022-11-18T01:59:59.624Z,98867.88
2022-11-18T02:02:32.402Z,98873.31
2022-11-18T02:05:02.087Z,98875.47
2022-11-18T02:07:29.996Z,98884.22
2022-11-18T02:10:59.406Z,98885.59
2022-11-18T02:13:27.934Z,98887.19
2022-11-18T02:16:04.522Z,98886.44
2022-11-18T02:18:37.657Z,98894.66
2022-11-18T02:21:17.680Z,98889.91
2022-11-18T02:24:17.513Z,98883.41
2022-11-18T02:27:07.916Z,98885.50
2022-11-18T02:29:44.937Z,98890.81
2022-11-18T02:32:15.720Z,98899.97
2022-11-18T02:34:50.500Z,98896.88
2022-11-18T02:37:23.987Z,98900.94
2022-11-18T02:39:55.980Z,98906.88
2022-11-18T02:42:25.698Z,98904.09
2022-11-18T02:44:59.618Z,98908.41
2022-11-18T02:47:29.103Z,98912.72
2022-11-18T02:50:05.146Z,98910.31
2022-11-18T02:52:36.342Z,98912.06
2022-11-18T02:55:04.580Z,98907.19
2022-11-18T02:57:33.013Z,98906.75
2022-11-18T03:00:02.183Z,98914.41
2022-11-18T03:02:30.961Z,98917.63
2022-11-18T03:04:59.227Z,98919.59
2022-11-18T03:07:31.112Z,98919.25
2022-11-18T03:10:01.088Z,98916.25
2022-11-18T03:12:34.859Z,98923.22
2022-11-18T03:15:13.187Z,98923.78
2022-11-18T03:17:48.894Z,98924.03
2022-11-18T03:20:24.444Z,98933.63
2022-11-18T03:22:56.961Z,98935.47
2022-11-18T03:25:30.159Z,98942.88
2022-11-18T03:28:01.306Z,98947.28
2022-11-18T03:30:32.467Z,98950.63
2022-11-18T03:33:03.814Z,98957.94
2022-11-18T03:35:34.046Z,98962.56
2022-11-18T03:38:06.853Z,98960.47
2022-11-18T03:40:36.960Z,98961.94
2022-11-18T03:43:07.986Z,98972.28
2022-11-18T03:45:40.395Z,98966.03
2022-11-18T03:48:11.769Z,98969.53
2022-11-18T03:50:43.090Z,98970.91
2022-11-18T03:53:12.416Z,98974.72
2022-11-18T03:55:41.825Z,98972.31
2022-11-18T03:58:13.914Z,98979.03
2022-11-18T04:00:45.586Z,98976.25
2022-11-18T04:03:13.866Z,98982.59
2022-11-18T04:05:43.480Z,98990.69
2022-11-18T04:08:14.680Z,98987.38
2022-11-18T04:10:47.582Z,98995.25
2022-11-18T04:13:19.069Z,98998.81
2022-11-18T04:15:51.216Z,98996.41
2022-11-18T04:18:18.799Z,99005.41
2022-11-18T04:20:46.882Z,98996.75
2022-11-18T04:23:14.683Z,98997.78
2022-11-18T04:25:42.586Z,99000.00
2022-11-18T04:28:12.608Z,98999.63
2022-11-18T04:30:41.000Z,99014.00
2022-11-18T04:33:10.122Z,99006.00
2022-11-18T04:35:39.628Z,99009.38
2022-11-18T04:38:07.364Z,99017.25
2022-11-18T04:40:36.166Z,99013.53
2022-11-18T04:43:03.772Z,99020.72
2022-11-18T04:45:32.159Z,99025.69
2022-11-18T04:48:03.536Z,99026.97
2022-11-18T04:50:33.150Z,99022.44
2022-11-18T04:53:01.455Z,99028.34
2022-11-18T04:55:30.092Z,99033.91
2022-11-18T04:57:57.666Z,99032.78
2022-11-18T05:00:25.452Z,99032.16
2022-11-18T05:02:52.992Z,99035.31
2022-11-18T05:05:22.468Z,99035.31
2022-11-18T05:07:53.094Z,99039.56
2022-11-18T05:10:20.784Z,99038.09
2022-11-18T05:12:52.262Z,99041.66
2022-11-18T05:15:22.354Z,99049.44
2022-11-18T05:17:50.701Z,99047.81
2022-11-18T05:20:18.361Z,99054.31
2022-11-18T05:22:47.135Z,99062.88
2022-11-18T05:25:17.480Z,99063.34
2022-11-18T05:27:45.127Z,99064.03
2022-11-18T05:30:14.717Z,99066.94
2022-11-18T05:32:43.796Z,99064.97
2022-11-18T05:35:11.668Z,99077.59
2022-11-18T05:37:39.286Z,99079.00
2022-11-18T05:40:10.061Z,99076.34
2022-11-18T05:42:57.276Z,99073.22
2022-11-18T05:45:25.820Z,99076.22
2022-11-18T05:48:04.482Z,99071.56
2022-11-18T05:50:34.547Z,99077.47
2022-11-18T05:53:04.549Z,99087.13
2022-11-18T05:55:41.444Z,99090.34
2022-11-18T05:58:10.762Z,99083.38
2022-11-18T06:00:38.550Z,99086.06
2022-11-18T06:03:11.804Z,99091.38
2022-11-18T06:05:40.909Z,99092.31
2022-11-18T06:08:09.942Z,99098.47
2022-11-18T06:10:39.650Z,99107.25
2022-11-18T06:13:11.124Z,99105.75
2022-11-18T06:15:42.134Z,99105.75
2022-11-18T06:18:13.643Z,99118.50
2022-11-18T06:20:42.396Z,99119.28
2022-11-18T06:23:10.487Z,99114.31
2022-11-18T06:25:39.176Z,99127.19
2022-11-18T06:28:07.248Z,99132.06
2022-11-18T06:30:37.039Z,99128.69
2022-11-18T06:33:05.110Z,99138.31
2022-11-18T06:35:34.271Z,99139.47
2022-11-18T06:38:03.333Z,99145.94
2022-11-18T06:40:34.656Z,99145.94
2022-11-18T06:43:24.707Z,99152.09
2022-11-18T06:46:14.330Z,99154.88
2022-11-18T06:48:42.874Z,99163.94
2022-11-18T06:51:11.294Z,99165.53
2022-11-18T06:53:39.832Z,99166.34
2022-11-18T06:56:09.074Z,99164.38
2022-11-18T06:58:37.171Z,99176.75
2022-11-18T07:01:14.049Z,99181.38
2022-11-18T07:03:43.272Z,99180.94
2022-11-18T07:06:11.963Z,99191.22
2022-11-18T07:08:41.675Z,99199.81
2022-11-18T07:12:13.854Z,99212.31
2022-11-18T07:14:42.095Z,99208.97
2022-11-18T07:17:13.052Z,99221.47
2022-11-18T07:19:42.288Z,99212.22
2022-11-18T07:22:10.141Z,99216.28
2022-11-18T07:24:43.585Z,99223.69
2022-11-18T07:27:11.900Z,99218.63
2022-11-18T07:29:39.373Z,99227.06
2022-11-18T07:32:07.831Z,99230.81
2022-11-18T07:34:36.755Z,99231.59
2022-11-18T07:37:04.664Z,99236.72
2022-11-18T07:39:33.309Z,99234.19
2022-11-18T07:42:01.887Z,99243.50
2022-11-18T07:44:29.673Z,99248.97
2022-11-18T07:46:57.328Z,99248.97
2022-11-18T07:49:26.107Z,99244.72
2022-11-18T07:51:56.111Z,99247.06
2022-11-18T07:54:23.646Z,99251.31
2022-11-18T07:56:52.045Z,99255.06
2022-11-18T07:59:20.784Z,99253.41
2022-11-18T08:01:48.537Z,99264.31
2022-11-18T08:04:17.957Z,99264.22
2022-11-18T08:06:45.794Z,99266.50
2022-11-18T08:09:15.996Z,99265.72
2022-11-18T08:11:43.672Z,99272.66
2022-11-18T08:14:11.288Z,99276.81
2022-11-18T08:16:38.982Z,99281.91
2022-11-18T08:19:08.513Z,99286.56
2022-11-18T08:21:36.030Z,99283.31
2022-11-18T08:24:03.701Z,99282.41
2022-11-18T08:26:32.991Z,99288.56
2022-11-18T08:29:00.545Z,99294.09
2022-11-18T08:31:30.793Z,99295.06
2022-11-18T08:33:59.881Z,99294.69
2022-11-18T08:36:30.445Z,99302.81
2022-11-18T08:39:00.250Z,99305.03
2022-11-18T08:41:32.636Z,99302.03
2022-11-18T08:44:00.917Z,99304.22
2022-11-18T08:46:28.542Z,99309.34
2022-11-18T08:48:57.676Z,99309.78
2022-11-18T08:51:26.018Z,99310.94
2022-11-18T08:53:53.526Z,99305.63
2022-11-18T08:56:22.385Z,99305.16
2022-11-18T08:58:51.861Z,99313.97
2022-11-18T09:01:19.514Z,99308.91
2022-11-18T09:03:48.678Z,99318.63
2022-11-18T09:06:18.588Z,99323.75
2022-11-18T09:08:47.693Z,99325.28
2022-11-18T09:11:16.530Z,99320.78
2022-11-18T09:14:09.964Z,99326.00
2022-11-18T09:16:34.651Z,99331.72
2022-11-18T09:19:24.367Z,99330.56
2022-11-18T09:21:50.591Z,99331.59
2022-11-18T09:24:19.582Z,99331.28
2022-11-18T09:26:48.339Z,99330.44
2022-11-18T09:29:15.821Z,99335.41
2022-11-18T09:31:44.643Z,99332.38
2022-11-18T09:34:13.964Z,99335.53
2022-11-18T09:36:41.664Z,99339.34
2022-11-18T09:39:10.048Z,99341.56
2022-11-18T09:41:47.909Z,99346.56
2022-11-18T09:44:32.113Z,99348.41
2022-11-18T09:47:08.176Z,99343.09
2022-11-18T09:49:38.707Z,99350.66
2022-11-18T09:52:11.849Z,99356.13
2022-11-18T09:54:39.714Z,99362.44
2022-11-18T09:57:15.874Z,99363.00
2022-11-18T09:59:44.226Z,99361.41
2022-11-18T10:02:43.256Z,99364.78
2022-11-18T10:05:19.112Z,99371.75
2022-11-18T10:07:55.525Z,99372.00
2022-11-18T10:10:28.183Z,99373.50
2022-11-18T10:12:58.583Z,99368.63
2022-11-18T10:15:30.886Z,99382.19
2022-11-18T10:18:38.015Z,99376.75
2022-11-18T10:21:16.291Z,99376.75
2022-11-18T10:23:47.343Z,99376.53
2022-11-18T10:26:14.881Z,99382.19
2022-11-18T10:28:42.681Z,99388.72
2022-11-18T10:31:12.128Z,99398.34
2022-11-18T10:33:42.571Z,99397.53
2022-11-18T10:36:19.828Z,99401.47
2022-11-18T10:38:50.122Z,99399.50
2022-11-18T10:41:19.734Z,99401.59
2022-11-18T10:43:52.111Z,99407.31
2022-11-18T10:46:25.948Z,99408.09
2022-11-18T10:49:14.440Z,99405.66
2022-11-18T10:51:44.904Z,99404.38
2022-11-18T10:54:17.227Z,99414.16
2022-11-18T10:56:56.379Z,99415.31
2022-11-18T10:59:31.478Z,99414.94
2022-11-18T11:02:05.413Z,99408.22
2022-11-18T11:04:37.740Z,99408.34
2022-11-18T11:07:21.809Z,99409.50
2022-11-18T11:10:14.303Z,99412.88
2022-11-18T11:12:47.122Z,99420.19
2022-11-18T11:15:18.672Z,99417.03
2022-11-18T11:18:11.024Z,99424.69
2022-11-18T11:20:40.454Z,99424.69
2022-11-18T11:23:10.499Z,99426.69
2022-11-18T11:28:36.724Z,99418.91
2022-11-18T11:31:12.689Z,99426.78
2022-11-18T11:33:44.835Z,99424.69
2022-11-18T11:36:24.452Z,99425.75
2022-11-18T11:39:04.229Z,99432.88
2022-11-18T11:41:39.174Z,99431.47
2022-11-18T11:44:18.475Z,99432.63
2022-11-18T11:47:09.782Z,99434.00
2022-11-18T11:49:50.675Z,99441.00
2022-11-18T11:52:26.360Z,99441.91
2022-11-18T11:54:59.725Z,99450.28
2022-11-18T11:57:37.444Z,99449.22
2022-11-18T12:00:06.845Z,99453.41
2022-11-18T12:02:48.709Z,99448.78
2022-11-18T12:05:24.392Z,99450.25
2022-11-18T12:07:56.957Z,99453.63
2022-11-18T12:10:46.185Z,99463.84
2022-11-18T12:13:22.283Z,99466.19
2022-11-18T12:15:57.128Z,99463.66
2022-11-18T12:18:28.015Z,99459.47
2022-11-18T12:20:56.427Z,99468.81
2022-11-18T12:23:27.577Z,99472.59
2022-11-18T12:25:58.383Z,99469.38
2022-11-18T12:28:28.327Z,99471.19
2022-11-18T12:31:36.900Z,99474.13
2022-11-18T12:34:20.146Z,99470.28
2022-11-18T12:36:48.628Z,99480.16
2022-11-18T12:39:50.060Z,99480.47
2022-11-18T12:42:55.562Z,99484.88
2022-11-18T12:45:49.687Z,99487.69
2022-11-18T12:48:37.869Z,99486.75
2022-11-18T12:51:41.958Z,99496.78
2022-11-18T12:54:37.737Z,99490.00
2022-11-18T12:57:25.472Z,99495.69
2022-11-18T12:59:53.012Z,99492.66
2022-11-18T13:02:24.727Z,99502.75
2022-11-18T13:05:09.250Z,99497.31
2022-11-18T13:08:00.101Z,99504.44
2022-11-18T13:10:30.753Z,99506.28
2022-11-18T13:13:01.688Z,99509.88
2022-11-18T13:15:48.305Z,99511.34
2022-11-18T13:18:18.223Z,99512.69
2022-11-18T13:20:55.910Z,99509.50
2022-11-18T13:23:49.387Z,99512.72
2022-11-18T13:26:20.923Z,99517.03
2022-11-18T13:29:01.523Z,99524.41
2022-11-18T13:31:34.295Z,99516.09
2022-11-18T13:34:02.517Z,99531.53
2022-11-18T13:36:31.470Z,99524.88
2022-11-18T13:39:01.548Z,99532.78
2022-11-18T13:41:34.595Z,99535.53
2022-11-18T13:44:18.032Z,99534.03
2022-11-18T13:46:46.340Z,99534.34
2022-11-18T13:49:15.466Z,99529.59
2022-11-18T13:51:44.783Z,99533.66
2022-11-18T13:54:12.876Z,99537.81
2022-11-18T13:56:41.474Z,99540.13
2022-11-18T13:59:18.533Z,99538.72
2022-11-18T14:01:47.301Z,99533.16
2022-11-18T14:04:20.793Z,99528.56
2022-11-18T14:06:49.298Z,99526.91
2022-11-18T14:09:21.493Z,99525.31
2022-11-18T14:12:00.293Z,99535.06
2022-11-18T14:14:35.371Z,99539.47
2022-11-18T14:17:19.843Z,99545.84
2022-11-18T14:19:48.630Z,99543.84
2022-11-18T14:22:17.674Z,99553.41
2022-11-18T14:24:45.930Z,99559.50
2022-11-18T14:27:36.542Z,99558.41
2022-11-18T14:30:32.440Z,99566.94
2022-11-18T14:33:14.510Z,99572.13
2022-11-18T14:35:43.483Z,99572.59
2022-11-18T14:38:37.013Z,99574.28
2022-11-18T14:41:05.461Z,99574.75
2022-11-18T14:43:47.282Z,99566.44
2022-11-18T14:46:19.286Z,99569.88
2022-11-18T14:48:47.329Z,99574.22
2022-11-18T14:51:15.869Z,99581.41
2022-11-18T14:53:43.852Z,99582.25
2022-11-18T14:56:15.749Z,99593.72
2022-11-18T14:58:43.298Z,99589.63
2022-11-18T15:01:14.608Z,99599.03
2022-11-18T15:03:44.544Z,99603.16
2022-11-18T15:06:14.896Z,99597.00
2022-11-18T15:08:43.064Z,99601.13
2022-11-18T15:11:10.974Z,99600.72
2022-11-18T15:13:38.929Z,99599.06
2022-11-18T15:16:13.891Z,99598.69
2022-11-18T15:18:43.175Z,99606.50
2022-11-18T15:21:11.019Z,99613.25
2022-11-18T15:23:38.786Z,99611.00
2022-11-18T15:26:17.769Z,99616.72
2022-11-18T15:28:46.325Z,99628.78
2022-11-18T15:31:13.824Z,99629.81
2022-11-18T15:33:44.419Z,99635.56
2022-11-18T15:36:14.299Z,99637.59
2022-11-18T15:38:42.030Z,99635.56
2022-11-18T15:41:15.474Z,99646.59
2022-11-18T15:43:43.098Z,99652.31
2022-11-18T15:46:10.802Z,99657.84
2022-11-18T15:48:38.549Z,99658.47
2022-11-18T15:51:11.881Z,99653.34
2022-11-18T15:53:40.198Z,99660.50
2022-11-18T15:56:28.825Z,99661.91
2022-11-18T15:58:58.747Z,99664.56
2022-11-18T16:01:27.723Z,99667.81
2022-11-18T16:03:56.194Z,99668.84
2022-11-18T16:06:25.621Z,99670.69
2022-11-18T16:08:59.164Z,99672.72
2022-11-18T16:11:45.996Z,99671.09
2022-11-18T16:14:14.720Z,99673.91
2022-11-18T16:16:44.575Z,99673.56
2022-11-18T16:19:15.534Z,99678.81
2022-11-18T16:21:47.351Z,99678.00
2022-11-18T16:24:18.011Z,99679.22
2022-11-18T16:26:48.077Z,99684.09
2022-11-18T16:29:17.361Z,99684.09
2022-11-18T16:31:50.260Z,99685.53
2022-11-18T16:34:21.124Z,99684.47
2022-11-18T16:36:52.201Z,99692.25
2022-11-18T16:39:23.984Z,99698.38
2022-11-18T16:41:52.159Z,99699.81
2022-11-18T16:44:19.801Z,99699.41
2022-11-18T16:46:48.764Z,99708.34
2022-11-18T16:49:18.351Z,99709.38
2022-11-18T16:52:50.629Z,99711.50
2022-11-18T16:55:19.912Z,99715.41
2022-11-18T16:57:48.540Z,99728.44
2022-11-18T17:00:17.185Z,99723.56
2022-11-18T17:02:44.945Z,99724.00
2022-11-18T17:05:13.564Z,99724.00
2022-11-18T17:07:42.505Z,99729.84
2022-11-18T17:10:19.689Z,99732.09
2022-11-18T17:12:49.358Z,99737.22
2022-11-18T17:15:17.014Z,99747.84
2022-11-18T17:17:44.673Z,99741.88
2022-11-18T17:20:12.903Z,99743.47
2022-11-18T17:22:40.377Z,99740.19
2022-11-18T17:25:08.859Z,99753.59
2022-11-18T17:27:36.674Z,99752.22
2022-11-18T17:30:07.517Z,99750.31
2022-11-18T17:32:35.442Z,99758.47
2022-11-18T17:35:03.201Z,99757.19
2022-11-18T17:37:30.960Z,99760.31
2022-11-18T17:39:58.616Z,99765.78
2022-11-18T17:42:26.338Z,99775.16
2022-11-18T17:44:54.719Z,99775.13
2022-11-18T17:47:25.401Z,99775.75
2022-11-18T17:49:54.311Z,99782.50
2022-11-18T17:52:22.775Z,99788.38
2022-11-18T17:54:50.501Z,99790.19
2022-11-18T17:57:23.332Z,99797.06
2022-11-18T17:59:51.112Z,99797.06
2022-11-18T18:02:21.646Z,99792.16
2022-11-18T18:05:53.674Z,99797.34
2022-11-18T18:08:23.689Z,99789.72
2022-11-18T18:10:51.590Z,99797.41
2022-11-18T18:13:37.136Z,99790.97
2022-11-18T18:19:46.715Z,99797.63
2022-11-18T18:22:14.930Z,99795.59
2022-11-18T18:24:44.943Z,99806.44
2022-11-18T18:27:13.575Z,99809.59
2022-11-18T18:29:42.661Z,99811.59
2022-11-18T18:32:10.957Z,99819.03
2022-11-18T18:34:38.735Z,99821.91
2022-11-18T18:37:08.333Z,99829.63
2022-11-18T18:39:36.006Z,99827.63
2022-11-18T18:42:06.870Z,99831.41
2022-11-18T18:44:49.576Z,99834.94
2022-11-18T18:47:17.592Z,99842.25
2022-11-18T18:49:46.028Z,99839.88
2022-11-18T18:52:13.896Z,99846.28
2022-11-18T18:54:42.519Z,99853.28
2022-11-18T18:57:16.603Z,99849.31
2022-11-18T18:59:44.950Z,99860.53
2022-11-18T19:02:14.113Z,99855.88
2022-11-18T19:04:44.901Z,99854.34
2022-11-18T19:07:12.724Z,99859.66
2022-11-18T19:09:43.656Z,99859.00
2022-11-18T19:12:31.161Z,99855.34
2022-11-18T19:15:01.776Z,99856.91
2022-11-18T19:17:30.963Z,99869.19
2022-11-18T19:20:17.126Z,99869.78
2022-11-18T19:22:44.919Z,99868.06
2022-11-18T19:25:12.716Z,99874.72
2022-11-18T19:27:41.966Z,99873.81
2022-11-18T19:30:11.640Z,99879.59
2022-11-18T19:32:40.434Z,99885.50
2022-11-18T19:35:09.349Z,99887.69
2022-11-18T19:37:38.090Z,99882.31
2022-11-18T19:40:10.567Z,99892.56
2022-11-18T19:42:39.733Z,99893.72
2022-11-18T19:45:12.710Z,99903.03
2022-11-18T19:47:40.821Z,99898.91
2022-11-18T19:50:09.105Z,99895.63
2022-11-18T19:52:37.994Z,99897.94
2022-11-18T19:55:07.855Z,99905.31
2022-11-18T19:57:35.417Z,99903.94
2022-11-18T20:00:03.784Z,99910.13
2022-11-18T20:02:34.885Z,99906.13
2022-11-18T20:05:20.876Z,99905.66
2022-11-18T20:07:49.604Z,99901.69
2022-11-18T20:10:18.888Z,99907.97
2022-11-18T20:12:46.540Z,99908.59
2022-11-18T20:15:14.228Z,99912.06
2022-11-18T20:17:43.173Z,99918.97
2022-11-18T20:20:12.045Z,99915.34
2022-11-18T20:22:40.321Z,99916.59
2022-11-18T20:25:09.091Z,99911.94
2022-11-18T20:27:37.185Z,99916.72
2022-11-18T20:30:07.256Z,99924.66
2022-11-18T20:32:34.860Z,99925.44
2022-11-18T20:35:03.747Z,99924.94
2022-11-18T20:37:31.350Z,99932.03
2022-11-18T20:39:59.674Z,99935.03
2022-11-18T20:42:46.372Z,99935.22
2022-11-18T20:45:14.084Z,99929.66
2022-11-18T20:47:41.573Z,99935.94
2022-11-18T20:50:10.625Z,99935.59
2022-11-18T20:52:38.152Z,99944.34
2022-11-18T20:55:07.002Z,99941.94
2022-11-18T20:57:34.726Z,99942.81
2022-11-18T21:00:02.437Z,99948.22
2022-11-18T21:02:31.107Z,99952.06
2022-11-18T21:04:58.626Z,99943.06
2022-11-18T21:07:28.862Z,99949.13
2022-11-18T21:09:57.416Z,99943.91
2022-11-18T21:12:24.951Z,99948.56
2022-11-18T21:14:51.500Z,99949.34
2022-11-18T21:17:20.088Z,99936.78
2022-11-18T21:19:48.665Z,99950.72
2022-11-18T21:22:16.224Z,99945.63
2022-11-18T21:24:45.205Z,99948.72
2022-11-18T21:27:15.383Z,99965.22
2022-11-18T21:29:46.158Z,99965.22
2022-11-18T21:32:13.738Z,99962.94
2022-11-18T21:34:41.419Z,99972.50
2022-11-18T21:37:09.714Z,99974.25
2022-11-18T21:39:37.437Z,99972.25
2022-11-18T21:42:06.685Z,99974.09
2022-11-18T21:44:34.368Z,99978.13
2022-11-18T21:47:01.913Z,99974.50
2022-11-18T21:49:29.448Z,99983.31
2022-11-18T21:51:57.348Z,99973.22
2022-11-18T21:54:25.864Z,99981.22
2022-11-18T21:56:53.690Z,99974.44
2022-11-18T21:59:23.823Z,99978.13
2022-11-18T22:01:51.441Z,99983.91
2022-11-18T22:04:32.866Z,99980.13
2022-11-18T22:07:00.635Z,99985.47
2022-11-18T22:09:34.537Z,99984.50
2022-11-18T22:12:02.327Z,99985.44
2022-11-18T22:14:31.514Z,99992.72
2022-11-18T22:16:59.515Z,100000.00
2022-11-18T22:19:28.127Z,99992.72
2022-11-18T22:21:55.811Z,99995.41
2022-11-18T22:24:23.480Z,100005.16
2022-11-18T22:26:51.186Z,100000.34
2022-11-18T22:29:19.214Z,100006.91
2022-11-18T22:31:48.263Z,100010.56
2022-11-18T22:34:16.046Z,100006.69
2022-11-18T22:36:43.643Z,100007.78
2022-11-18T22:39:11.181Z,100008.91
2022-11-18T22:41:56.453Z,100002.00
2022-11-18T22:44:24.095Z,100016.09
2022-11-18T22:46:53.134Z,100012.94
2022-11-18T22:49:21.052Z,100015.97
2022-11-18T22:51:49.177Z,100011.28
2022-11-18T22:54:37.845Z,100016.75
2022-11-18T22:57:04.800Z,100016.78
2022-11-18T22:59:32.381Z,100025.25
2022-11-18T23:02:01.843Z,100027.44
2022-11-18T23:04:29.634Z,100023.91
2022-11-18T23:06:57.390Z,100019.63
2022-11-18T23:09:25.016Z,100021.47
2022-11-18T23:12:10.467Z,100023.69
2022-11-18T23:14:38.194Z,100029.91
2022-11-18T23:17:08.573Z,100028.41
2022-11-18T23:19:41.699Z,100046.06
2022-11-18T23:22:09.429Z,100034.56
2022-11-18T23:24:37.132Z,100038.00
2022-11-18T23:27:04.836Z,100038.84
2022-11-18T23:29:32.396Z,100044.44
2022-11-18T23:32:00.116Z,100040.63
2022-11-18T23:34:28.981Z,100044.44
2022-11-18T23:36:56.608Z,100045.50
2022-11-18T23:39:24.288Z,100050.78
2022-11-18T23:41:52.024Z,100045.84
2022-11-18T23:44:41.750Z,100048.09
2022-11-18T23:47:09.474Z,100049.00
2022-11-18T23:49:38.369Z,100063.81
2022-11-18T23:52:06.424Z,100067.59
2022-11-18T23:54:34.920Z,100063.34
2022-11-18T23:57:04.344Z,100064.00
2022-11-18T23:59:32.118Z,100067.66
